createdAt,value
2019-04-04T00:01:29.642Z,30.73
2019-04-04T00:03:59.606Z,27.57
2019-04-04T00:06:29.604Z,29.53
2019-04-04T00:09:01.697Z,30.63
2019-04-04T00:11:32.735Z,25.87
2019-04-04T00:14:02.695Z,26.20
2019-04-04T00:16:32.678Z,34.07
2019-04-04T00:19:02.640Z,33.07
2019-04-04T00:21:33.970Z,31.60
2019-04-04T00:24:04.380Z,31.67
2019-04-04T00:26:34.373Z,30.10
2019-04-04T00:29:04.401Z,31.03
2019-04-04T00:31:34.384Z,29.43
2019-04-04T00:34:04.351Z,27.23
2019-04-04T00:36:34.830Z,30.73
2019-04-04T00:39:09.099Z,31.23
2019-04-04T00:41:39.217Z,25.57
2019-04-04T00:44:09.180Z,30.57
2019-04-04T00:46:40.236Z,32.00
2019-04-04T00:49:10.195Z,27.87
2019-04-04T00:51:40.180Z,28.07
2019-04-04T00:54:10.147Z,29.03
2019-04-04T00:56:40.132Z,28.17
2019-04-04T00:59:10.093Z,30.80
2019-04-04T01:01:40.080Z,31.97
2019-04-04T01:04:10.111Z,35.73
2019-04-04T01:06:40.152Z,27.27
2019-04-04T01:09:13.313Z,31.20
2019-04-04T01:11:41.742Z,25.83
2019-04-04T01:14:11.699Z,27.17
2019-04-04T01:16:41.680Z,27.93
2019-04-04T01:19:11.641Z,26.53
2019-04-04T01:21:41.624Z,26.83
2019-04-04T01:24:11.590Z,26.77
2019-04-04T01:26:41.573Z,30.13
2019-04-04T01:29:11.535Z,28.13
2019-04-04T01:31:41.517Z,27.10
2019-04-04T01:34:11.483Z,35.27
2019-04-04T01:36:41.470Z,28.63
2019-04-04T01:39:11.435Z,24.93
2019-04-04T01:41:41.420Z,30.30
2019-04-04T01:44:11.818Z,27.93
2019-04-04T01:46:41.838Z,26.37
2019-04-04T01:49:11.787Z,29.87
2019-04-04T01:51:41.768Z,24.60
2019-04-04T01:54:12.797Z,25.63
2019-04-04T01:56:42.786Z,28.47
2019-04-04T01:59:13.001Z,26.63
2019-04-04T02:01:43.114Z,25.80
2019-04-04T02:04:13.068Z,24.00
2019-04-04T02:06:43.053Z,24.03
2019-04-04T02:09:13.024Z,25.70
2019-04-04T02:11:43.008Z,23.83
2019-04-04T02:14:12.975Z,26.37
2019-04-04T02:16:42.956Z,22.43
2019-04-04T02:19:12.916Z,25.40
2019-04-04T02:21:43.963Z,22.13
2019-04-04T02:24:13.931Z,25.07
2019-04-04T02:26:43.908Z,23.00
2019-04-04T02:29:13.868Z,25.47
2019-04-04T02:31:45.483Z,21.90
2019-04-04T02:34:15.452Z,26.40
2019-04-04T02:36:48.802Z,22.03
2019-04-04T02:39:19.039Z,23.53
2019-04-04T02:41:49.360Z,22.37
2019-04-04T02:44:19.401Z,22.47
2019-04-04T02:46:49.467Z,25.17
2019-04-04T02:49:19.426Z,23.73
2019-04-04T02:51:49.396Z,20.97
2019-04-04T02:54:23.969Z,24.83
2019-04-04T02:56:50.951Z,22.50
2019-04-04T02:59:22.029Z,21.00
2019-04-04T03:01:52.255Z,23.17
2019-04-04T03:04:22.203Z,20.50
2019-04-04T03:06:57.391Z,23.27
2019-04-04T03:09:23.923Z,24.30
2019-04-04T03:11:54.797Z,24.57
2019-04-04T03:14:25.915Z,20.63
2019-04-04T03:16:56.778Z,17.93
2019-04-04T03:19:27.460Z,23.60
2019-04-04T03:21:57.439Z,22.23
2019-04-04T03:24:27.387Z,22.70
2019-04-04T03:26:57.364Z,17.27
2019-04-04T03:29:27.312Z,22.67
2019-04-04T03:31:57.284Z,18.03
2019-04-04T03:34:27.231Z,25.83
2019-04-04T03:36:57.213Z,20.87
2019-04-04T03:39:27.143Z,30.53
2019-04-04T03:41:58.189Z,18.30
2019-04-04T03:44:28.135Z,22.23
2019-04-04T03:46:58.107Z,18.33
2019-04-04T03:49:28.082Z,22.97
2019-04-04T03:51:58.068Z,19.77
2019-04-04T03:54:28.587Z,18.00
2019-04-04T03:56:58.551Z,19.33
2019-04-04T03:59:29.601Z,22.57
2019-04-04T04:02:00.118Z,21.33
2019-04-04T04:04:30.093Z,18.57
2019-04-04T04:07:00.038Z,22.50
2019-04-04T04:09:30.093Z,22.50
2019-04-04T04:12:00.035Z,24.60
2019-04-04T04:14:30.016Z,25.20
2019-04-04T04:16:59.969Z,18.60
2019-04-04T04:19:31.314Z,19.43
2019-04-04T04:22:01.476Z,20.47
2019-04-04T04:24:31.527Z,22.83
2019-04-04T04:27:01.517Z,22.13
2019-04-04T04:29:31.559Z,22.43
2019-04-04T04:32:01.549Z,26.00
2019-04-04T04:34:34.054Z,40.33
2019-04-04T04:37:03.102Z,28.30
2019-04-04T04:39:38.220Z,23.97
2019-04-04T04:42:04.696Z,24.00
2019-04-04T04:44:37.780Z,22.97
2019-04-04T04:47:06.239Z,22.60
2019-04-04T04:49:36.453Z,20.73
2019-04-04T04:52:06.472Z,25.07
2019-04-04T04:54:36.436Z,21.90
2019-04-04T04:57:06.386Z,25.50
2019-04-04T04:59:36.366Z,26.90
2019-04-04T05:02:06.317Z,25.17
2019-04-04T05:04:36.278Z,20.57
2019-04-04T05:07:07.459Z,30.93
2019-04-04T05:09:37.900Z,34.40
2019-04-04T05:12:07.844Z,20.80
2019-04-04T05:14:37.826Z,25.57
2019-04-04T05:17:08.073Z,24.90
2019-04-04T05:19:39.362Z,26.50
2019-04-04T05:22:09.787Z,24.27
2019-04-04T05:24:39.796Z,26.80
2019-04-04T05:27:09.747Z,39.23
2019-04-04T05:29:39.726Z,41.20
2019-04-04T05:32:09.671Z,37.13
2019-04-04T05:34:39.642Z,38.60
2019-04-04T05:37:09.586Z,40.83
2019-04-04T05:39:39.568Z,28.33
2019-04-04T05:42:09.663Z,26.77
2019-04-04T05:44:41.646Z,26.57
2019-04-04T05:47:11.193Z,26.87
2019-04-04T05:49:41.159Z,38.03
2019-04-04T05:52:11.102Z,27.57
2019-04-04T05:54:42.038Z,27.27
2019-04-04T05:57:12.060Z,36.20
2019-04-04T05:59:42.446Z,31.77
2019-04-04T06:02:13.251Z,24.47
2019-04-04T06:04:43.218Z,32.73
2019-04-04T06:07:16.190Z,34.07
2019-04-04T06:09:46.968Z,27.10
2019-04-04T06:12:16.340Z,26.97
2019-04-04T06:14:46.314Z,31.60
2019-04-04T06:17:16.263Z,36.20
2019-04-04T06:19:46.234Z,34.73
2019-04-04T06:22:16.186Z,35.10
2019-04-04T06:24:46.210Z,33.73
2019-04-04T06:27:16.158Z,46.17
2019-04-04T06:29:47.692Z,34.23
2019-04-04T06:32:17.775Z,35.33
2019-04-04T06:34:47.815Z,48.50
2019-04-04T06:37:18.069Z,31.83
2019-04-04T06:39:49.350Z,36.17
2019-04-04T06:42:19.294Z,37.20
2019-04-04T06:44:49.344Z,34.37
2019-04-04T06:47:19.292Z,35.10
2019-04-04T06:49:49.365Z,39.27
2019-04-04T06:52:19.361Z,30.73
2019-04-04T06:54:50.323Z,31.37
2019-04-04T06:57:20.263Z,28.30
2019-04-04T06:59:51.244Z,26.70
2019-04-04T07:02:21.967Z,22.57
2019-04-04T07:04:52.883Z,22.13
2019-04-04T07:07:22.843Z,23.97
2019-04-04T07:09:52.990Z,20.00
2019-04-04T07:12:28.222Z,15.03
2019-04-04T07:14:54.640Z,14.20
2019-04-04T07:17:24.681Z,15.57
2019-04-04T07:19:54.651Z,18.63
2019-04-04T07:22:25.467Z,15.50
2019-04-04T07:24:55.454Z,15.60
2019-04-04T07:27:25.397Z,14.93
2019-04-04T07:29:56.925Z,13.43
2019-04-04T07:32:27.898Z,17.10
2019-04-04T07:34:57.876Z,16.80
2019-04-04T07:37:27.822Z,16.87
2019-04-04T07:39:57.794Z,11.20
2019-04-04T07:42:28.821Z,16.70
2019-04-04T07:44:58.867Z,23.93
2019-04-04T07:47:28.812Z,15.70
2019-04-04T07:49:58.784Z,11.87
2019-04-04T07:52:28.737Z,15.73
2019-04-04T07:54:58.707Z,16.70
2019-04-04T07:57:30.126Z,17.93
2019-04-04T08:00:00.254Z,16.77
2019-04-04T08:02:30.199Z,15.93
2019-04-04T08:05:00.241Z,14.20
2019-04-04T08:07:30.189Z,14.43
2019-04-04T08:10:00.274Z,12.77
2019-04-04T08:12:30.228Z,12.83
2019-04-04T08:15:00.696Z,14.17
2019-04-04T08:17:30.687Z,13.13
2019-04-04T08:20:00.657Z,14.43
2019-04-04T08:22:30.605Z,11.90
2019-04-04T08:25:00.579Z,13.37
2019-04-04T08:27:30.600Z,15.03
2019-04-04T08:30:00.570Z,15.40
2019-04-04T08:32:30.518Z,14.53
2019-04-04T08:35:00.486Z,16.67
2019-04-04T08:37:30.435Z,14.13
2019-04-04T08:40:00.413Z,10.67
2019-04-04T08:42:30.355Z,11.77
2019-04-04T08:45:00.419Z,11.90
2019-04-04T08:47:30.366Z,11.77
2019-04-04T08:50:00.349Z,11.70
2019-04-04T08:52:30.344Z,11.30
2019-04-04T08:55:00.486Z,12.80
2019-04-04T08:57:30.443Z,12.03
2019-04-04T09:00:00.483Z,37.80
2019-04-04T09:02:30.435Z,17.63
2019-04-04T09:05:11.134Z,23.90
2019-04-04T09:07:32.039Z,12.60
2019-04-04T09:10:02.013Z,12.77
2019-04-04T09:12:31.954Z,12.17
2019-04-04T09:15:02.972Z,16.03
2019-04-04T09:17:32.920Z,16.53
2019-04-04T09:20:04.231Z,12.50
2019-04-04T09:22:34.178Z,12.00
2019-04-04T09:25:10.485Z,15.97
2019-04-04T09:27:40.423Z,12.53
2019-04-04T09:30:12.035Z,11.10
2019-04-04T09:32:41.984Z,9.77
2019-04-04T09:35:12.587Z,9.73
2019-04-04T09:37:42.535Z,9.87
2019-04-04T09:40:14.286Z,8.50
2019-04-04T09:42:44.230Z,9.43
2019-04-04T09:45:14.339Z,8.27
2019-04-04T09:47:45.422Z,8.70
2019-04-04T09:50:15.933Z,9.90
2019-04-04T09:52:45.871Z,10.80
2019-04-04T09:55:15.979Z,9.93
2019-04-04T09:57:45.931Z,11.23
2019-04-04T10:00:19.290Z,9.33
2019-04-04T10:02:49.399Z,9.57
2019-04-04T10:05:19.703Z,8.70
2019-04-04T10:07:49.716Z,10.03
2019-04-04T10:10:19.751Z,10.70
2019-04-04T10:12:50.680Z,9.23
2019-04-04T10:15:20.721Z,12.37
2019-04-04T10:17:50.663Z,12.63
2019-04-04T10:20:20.643Z,16.20
2019-04-04T10:22:50.582Z,9.43
2019-04-04T10:25:20.551Z,7.23
2019-04-04T10:27:50.711Z,11.87
2019-04-04T10:30:20.755Z,11.33
2019-04-04T10:32:50.702Z,8.00
2019-04-04T10:35:20.671Z,9.83
2019-04-04T10:37:50.614Z,11.27
2019-04-04T10:40:20.828Z,11.03
2019-04-04T10:42:50.774Z,9.30
2019-04-04T10:45:20.742Z,11.27
2019-04-04T10:47:50.690Z,7.10
2019-04-04T10:50:20.667Z,10.33
2019-04-04T10:52:50.620Z,7.17
2019-04-04T10:55:20.667Z,10.00
2019-04-04T10:57:50.610Z,12.03
2019-04-04T11:00:22.387Z,9.67
2019-04-04T11:02:52.403Z,10.73
2019-04-04T11:05:22.375Z,8.87
2019-04-04T11:07:52.347Z,11.17
2019-04-04T11:10:22.296Z,9.53
2019-04-04T11:12:52.442Z,10.83
2019-04-04T11:15:22.415Z,13.23
2019-04-04T11:17:52.407Z,9.27
2019-04-04T11:20:22.404Z,12.93
2019-04-04T11:22:52.376Z,6.13
2019-04-04T11:25:22.328Z,12.87
2019-04-04T11:27:52.295Z,6.90
2019-04-04T11:30:22.774Z,9.63
2019-04-04T11:32:52.752Z,9.60
2019-04-04T11:35:22.691Z,9.73
2019-04-04T11:37:52.657Z,10.77
2019-04-04T11:40:22.673Z,6.83
2019-04-04T11:42:52.677Z,8.23
2019-04-04T11:45:22.623Z,7.90
2019-04-04T11:47:52.590Z,11.00
2019-04-04T11:50:22.540Z,9.53
2019-04-04T11:52:52.507Z,9.97
2019-04-04T11:55:22.458Z,13.93
2019-04-04T11:57:52.428Z,9.70
2019-04-04T12:00:24.940Z,8.63
2019-04-04T12:02:54.912Z,8.13
2019-04-04T12:05:24.867Z,9.63
2019-04-04T12:07:54.839Z,12.33
2019-04-04T12:10:24.782Z,16.20
2019-04-04T12:12:54.759Z,17.87
2019-04-04T12:15:24.702Z,9.30
2019-04-04T12:17:54.738Z,12.33
2019-04-04T12:20:24.682Z,21.23
2019-04-04T12:22:54.652Z,9.00
2019-04-04T12:25:24.600Z,7.40
2019-04-04T12:27:54.591Z,8.20
2019-04-04T12:30:24.532Z,7.93
2019-04-04T12:32:54.494Z,9.03
2019-04-04T12:35:24.438Z,12.60
2019-04-04T12:37:54.415Z,6.57
2019-04-04T12:40:24.496Z,11.40
2019-04-04T12:42:54.462Z,5.67
2019-04-04T12:45:24.532Z,9.77
2019-04-04T12:47:54.508Z,8.47
2019-04-04T12:50:24.454Z,8.03
2019-04-04T12:52:54.431Z,13.30
2019-04-04T12:55:24.370Z,7.37
2019-04-04T12:57:57.749Z,9.73
2019-04-04T13:00:28.202Z,10.73
2019-04-04T13:03:00.134Z,10.23
2019-04-04T13:05:30.243Z,10.43
2019-04-04T13:08:00.299Z,7.30
2019-04-04T13:10:33.411Z,8.43
2019-04-04T13:13:02.158Z,15.53
2019-04-04T13:15:32.188Z,14.33
2019-04-04T13:18:02.162Z,10.23
2019-04-04T13:20:32.154Z,8.63
2019-04-04T13:23:02.168Z,8.90
2019-04-04T13:25:32.067Z,9.70
2019-04-04T13:28:02.043Z,6.90
2019-04-04T13:30:32.000Z,12.60
2019-04-04T13:33:01.981Z,13.23
2019-04-04T13:35:31.926Z,20.33
2019-04-04T13:38:01.900Z,8.43
2019-04-04T13:40:31.851Z,13.10
2019-04-04T13:43:01.819Z,16.10
2019-04-04T13:45:31.763Z,13.93
2019-04-04T13:48:01.735Z,25.67
2019-04-04T13:50:31.705Z,11.73
2019-04-04T13:53:02.989Z,8.30
2019-04-04T13:55:35.231Z,8.23
2019-04-04T13:58:05.481Z,9.50
2019-04-04T14:00:36.434Z,11.40
2019-04-04T14:03:07.400Z,9.70
2019-04-04T14:05:37.404Z,14.00
2019-04-04T14:08:09.498Z,9.60
2019-04-04T14:10:40.495Z,9.13
2019-04-04T14:13:12.005Z,15.53
2019-04-04T14:15:42.027Z,11.77
2019-04-04T14:18:38.246Z,8.63
2019-04-04T14:21:03.270Z,7.60
2019-04-04T14:23:28.539Z,11.00
2019-04-04T14:26:00.042Z,10.10
2019-04-04T14:28:30.665Z,8.57
2019-04-04T14:31:00.671Z,11.00
2019-04-04T14:33:31.012Z,16.57
2019-04-04T14:36:00.963Z,9.03
2019-04-04T14:38:31.221Z,12.23
2019-04-04T14:41:11.149Z,9.40
2019-04-04T14:43:35.762Z,9.77
2019-04-04T14:46:07.587Z,11.10
2019-04-04T14:48:38.007Z,10.97
2019-04-04T14:51:08.220Z,12.97
2019-04-04T14:53:38.192Z,11.90
2019-04-04T14:56:08.136Z,18.33
2019-04-04T14:58:38.106Z,9.83
2019-04-04T15:01:08.159Z,11.93
2019-04-04T15:03:38.153Z,12.40
2019-04-04T15:06:08.082Z,12.07
2019-04-04T15:08:38.055Z,10.90
2019-04-04T15:11:08.009Z,8.40
2019-04-04T15:13:37.974Z,17.30
2019-04-04T15:16:16.327Z,15.23
2019-04-04T15:18:46.636Z,15.07
2019-04-04T15:21:16.751Z,9.50
2019-04-04T15:23:46.727Z,13.13
2019-04-04T15:26:16.679Z,10.57
2019-04-04T15:28:46.723Z,9.67
2019-04-04T15:31:16.672Z,13.17
2019-04-04T15:33:46.724Z,12.13
2019-04-04T15:36:16.668Z,8.27
2019-04-04T15:38:47.587Z,10.60
2019-04-04T15:41:17.643Z,10.47
2019-04-04T15:43:47.686Z,16.47
2019-04-04T15:46:17.639Z,11.50
2019-04-04T15:48:47.610Z,8.93
2019-04-04T15:51:17.556Z,10.37
2019-04-04T15:53:47.522Z,7.73
2019-04-04T15:56:17.468Z,13.00
2019-04-04T15:58:47.439Z,13.83
2019-04-04T16:01:17.399Z,9.03
2019-04-04T16:03:47.364Z,7.53
2019-04-04T16:06:17.314Z,11.63
2019-04-04T16:08:47.295Z,8.10
2019-04-04T16:11:17.288Z,12.37
2019-04-04T16:13:47.278Z,11.90
2019-04-04T16:16:17.227Z,9.40
2019-04-04T16:18:47.198Z,14.60
2019-04-04T16:21:17.146Z,10.70
2019-04-04T16:23:47.115Z,9.40
2019-04-04T16:26:17.062Z,15.57
2019-04-04T16:28:47.039Z,11.33
2019-04-04T16:31:17.556Z,7.40
2019-04-04T16:33:47.537Z,13.07
2019-04-04T16:36:17.483Z,15.67
2019-04-04T16:38:47.455Z,10.23
2019-04-04T16:41:17.474Z,7.80
2019-04-04T16:43:49.459Z,10.23
2019-04-04T16:46:19.018Z,8.90
2019-04-04T16:48:49.039Z,9.40
2019-04-04T16:51:19.018Z,10.73
2019-04-04T16:53:48.995Z,14.73
2019-04-04T16:56:18.942Z,9.87
2019-04-04T16:58:48.917Z,10.33
2019-04-04T17:01:18.960Z,9.40
2019-04-04T17:04:00.698Z,16.20
2019-04-04T17:06:20.492Z,14.50
2019-04-04T17:08:50.463Z,12.97
2019-04-04T17:11:20.424Z,11.10
2019-04-04T17:13:50.403Z,13.57
2019-04-04T17:16:21.464Z,11.43
2019-04-04T17:18:51.958Z,14.33
2019-04-04T17:21:21.904Z,13.67
2019-04-04T17:23:51.880Z,16.60
2019-04-04T17:26:21.943Z,10.90
2019-04-04T17:28:52.390Z,15.63
2019-04-04T17:31:22.742Z,11.87
2019-04-04T17:33:52.746Z,12.30
2019-04-04T17:36:22.699Z,20.37
2019-04-04T17:38:54.816Z,12.23
2019-04-04T17:41:24.250Z,17.30
2019-04-04T17:43:54.220Z,14.97
2019-04-04T17:46:24.170Z,18.50
2019-04-04T17:48:54.184Z,12.47
2019-04-04T17:51:24.159Z,15.43
2019-04-04T17:53:54.419Z,18.83
2019-04-04T17:56:24.835Z,15.00
2019-04-04T17:58:54.927Z,12.63
2019-04-04T18:01:24.875Z,17.10
2019-04-04T18:03:54.847Z,20.10
2019-04-04T18:06:24.807Z,15.20
2019-04-04T18:08:54.855Z,14.17
2019-04-04T18:11:24.805Z,19.67
2019-04-04T18:13:54.779Z,14.00
2019-04-04T18:16:24.802Z,12.20
2019-04-04T18:18:55.878Z,17.60
2019-04-04T18:21:25.827Z,12.43
2019-04-04T18:23:55.800Z,17.10
2019-04-04T18:26:26.722Z,15.27
2019-04-04T18:28:56.706Z,18.20
2019-04-04T18:31:26.666Z,15.50
2019-04-04T18:33:56.660Z,15.50
2019-04-04T18:36:26.619Z,18.47
2019-04-04T18:38:56.604Z,15.17
2019-04-04T18:41:26.548Z,15.90
2019-04-04T18:43:56.529Z,14.07
2019-04-04T18:46:26.479Z,15.77
2019-04-04T18:48:56.511Z,16.00
2019-04-04T18:51:26.459Z,16.13
2019-04-04T18:53:56.430Z,19.30
2019-04-04T18:56:26.413Z,17.60
2019-04-04T18:58:56.359Z,14.63
2019-04-04T19:01:26.331Z,13.90
2019-04-04T19:03:56.286Z,14.43
2019-04-04T19:06:26.255Z,17.97
2019-04-04T19:08:56.203Z,15.10
2019-04-04T19:11:26.179Z,14.43
2019-04-04T19:13:56.143Z,18.70
2019-04-04T19:16:26.183Z,19.80
2019-04-04T19:18:57.110Z,18.97
2019-04-04T19:21:27.116Z,15.83
2019-04-04T19:23:57.070Z,13.70
2019-04-04T19:26:27.051Z,15.73
2019-04-04T19:28:56.994Z,15.00
2019-04-04T19:31:27.164Z,13.27
2019-04-04T19:33:57.151Z,14.50
2019-04-04T19:36:27.136Z,12.47
2019-04-04T19:38:57.086Z,15.33
2019-04-04T19:41:27.116Z,19.93
2019-04-04T19:43:57.060Z,18.87
2019-04-04T19:46:36.566Z,14.03
2019-04-04T19:48:58.704Z,17.33
2019-04-04T19:51:31.395Z,20.67
2019-04-04T19:54:01.347Z,14.93
2019-04-04T19:56:31.401Z,19.10
2019-04-04T19:59:01.350Z,23.97
2019-04-04T20:01:31.318Z,16.93
2019-04-04T20:04:01.366Z,14.53
2019-04-04T20:06:31.464Z,16.60
2019-04-04T20:09:01.420Z,19.60
2019-04-04T20:11:32.995Z,16.83
2019-04-04T20:14:03.129Z,16.17
2019-04-04T20:16:33.168Z,15.00
2019-04-04T20:19:03.124Z,12.97
2019-04-04T20:21:33.114Z,17.50
2019-04-04T20:24:03.153Z,21.53
2019-04-04T20:26:33.127Z,12.00
2019-04-04T20:29:03.275Z,15.93
2019-04-04T20:31:33.247Z,17.33
2019-04-04T20:34:05.939Z,18.27
2019-04-04T20:36:34.903Z,17.43
2019-04-04T20:39:07.510Z,15.20
2019-04-04T20:41:37.551Z,15.93
2019-04-04T20:44:07.676Z,17.23
2019-04-04T20:46:37.647Z,18.60
2019-04-04T20:49:07.615Z,15.03
2019-04-04T20:51:37.596Z,15.70
2019-04-04T20:54:07.560Z,17.70
2019-04-04T20:56:37.611Z,13.20
2019-04-04T20:59:07.698Z,17.67
2019-04-04T21:01:37.668Z,14.80
2019-04-04T21:04:07.715Z,23.33
2019-04-04T21:06:37.777Z,12.17
2019-04-04T21:09:08.279Z,17.60
2019-04-04T21:11:38.260Z,16.27
2019-04-04T21:14:08.219Z,18.47
2019-04-04T21:16:38.211Z,14.50
2019-04-04T21:19:08.171Z,18.47
2019-04-04T21:21:38.143Z,16.30
2019-04-04T21:24:08.103Z,19.27
2019-04-04T21:26:38.128Z,20.37
2019-04-04T21:29:08.114Z,16.40
2019-04-04T21:31:38.089Z,15.47
2019-04-04T21:34:08.211Z,19.07
2019-04-04T21:36:38.191Z,13.23
2019-04-04T21:39:08.788Z,15.83
2019-04-04T21:41:38.887Z,18.33
2019-04-04T21:44:09.446Z,15.40
2019-04-04T21:46:40.503Z,17.30
2019-04-04T21:49:10.503Z,15.60
2019-04-04T21:51:40.492Z,17.33
2019-04-04T21:54:10.451Z,20.47
2019-04-04T21:56:40.439Z,16.13
2019-04-04T21:59:10.395Z,15.77
2019-04-04T22:01:40.539Z,23.70
2019-04-04T22:04:10.490Z,16.77
2019-04-04T22:06:40.471Z,13.67
2019-04-04T22:09:13.303Z,21.67
2019-04-04T22:11:43.284Z,21.53
2019-04-04T22:14:21.476Z,19.70
2019-04-04T22:16:44.931Z,15.37
2019-04-04T22:19:14.892Z,18.53
2019-04-04T22:21:44.874Z,13.03
2019-04-04T22:24:14.826Z,17.00
2019-04-04T22:26:44.811Z,19.53
2019-04-04T22:29:14.771Z,16.77
2019-04-04T22:31:44.787Z,18.07
2019-04-04T22:34:14.813Z,16.10
2019-04-04T22:36:44.727Z,16.43
2019-04-04T22:39:14.688Z,15.10
2019-04-04T22:41:44.667Z,15.73
2019-04-04T22:44:14.635Z,16.03
2019-04-04T22:46:44.624Z,16.67
2019-04-04T22:49:14.567Z,15.60
2019-04-04T22:51:44.558Z,16.50
2019-04-04T22:54:14.518Z,14.33
2019-04-04T22:56:44.490Z,14.13
2019-04-04T22:59:14.524Z,23.20
2019-04-04T23:01:44.502Z,16.77
2019-04-04T23:04:14.459Z,15.87
2019-04-04T23:06:45.503Z,16.97
2019-04-04T23:09:15.465Z,14.93
2019-04-04T23:11:45.442Z,22.67
2019-04-04T23:14:15.662Z,21.03
2019-04-04T23:16:45.647Z,16.40
2019-04-04T23:19:15.615Z,16.63
2019-04-04T23:21:45.650Z,17.33
2019-04-04T23:24:15.663Z,18.73
2019-04-04T23:26:45.643Z,13.67
2019-04-04T23:29:16.674Z,15.73
2019-04-04T23:31:46.664Z,19.23
2019-04-04T23:34:16.632Z,19.73
2019-04-04T23:36:46.631Z,19.23
2019-04-04T23:39:16.591Z,18.87
2019-04-04T23:41:46.575Z,17.40
2019-04-04T23:44:16.556Z,16.43
2019-04-04T23:46:46.699Z,20.30
2019-04-04T23:49:16.683Z,17.57
2019-04-04T23:51:46.878Z,23.67
2019-04-04T23:54:16.853Z,37.77
2019-04-04T23:56:46.823Z,42.80
2019-04-04T23:59:18.431Z,72.17
